San Pedro, California
Current Conditions -  °F | °C
As of 7:53 PM on Tuesday 21 Oct 2014 (Local Time) from KLGB Reporting Station
Clear Clear  
Wind Chill: 69°   Ceiling: Unl
Heat Index: 69°   Visibility: 10mi
Dew Point: 63°   Wind: 5mph
Humidity: 81%   Direction: 310°NW
Pressure: 29.85"   Gusts: NA
Location:  33.74°N, 118.29°W
Report Text: KLGB 220253Z 31004KT 10SM CLR 21/17 A2985 RMK AO2 SLP109 T02060172 53006
Loading
Personal Weather Stations






























Interactive Weather Map
Tropical Storm Tracking
New forecast layout! Learn more

10-Day Weather Forecast

Advertisements
Track Severe Weather on mobile